createdAt,value
2023-03-30T00:02:38.738Z,100.00
2023-03-30T00:06:42.425Z,100.00
2023-03-30T00:10:45.586Z,100.00
2023-03-30T00:14:50.577Z,100.00
2023-03-30T00:18:53.297Z,100.00
2023-03-30T00:22:55.980Z,100.00
2023-03-30T00:26:58.775Z,100.00
2023-03-30T00:31:03.049Z,100.00
2023-03-30T00:35:06.674Z,100.00
2023-03-30T00:39:09.603Z,100.00
2023-03-30T00:43:15.338Z,100.00
2023-03-30T00:47:20.362Z,100.00
2023-03-30T00:51:23.071Z,100.00
2023-03-30T00:55:28.902Z,100.00
2023-03-30T00:59:31.768Z,100.00
2023-03-30T01:03:40.011Z,100.00
2023-03-30T01:07:46.386Z,100.00
2023-03-30T01:11:49.355Z,100.00
2023-03-30T01:16:06.420Z,100.00
2023-03-30T01:20:42.898Z,100.00
2023-03-30T01:25:05.651Z,100.00
2023-03-30T01:29:16.335Z,100.00
2023-03-30T01:33:55.324Z,100.00
2023-03-30T01:38:21.416Z,100.00
2023-03-30T01:42:35.822Z,100.00
2023-03-30T01:46:43.788Z,100.00
2023-03-30T01:50:52.733Z,100.00
2023-03-30T01:55:00.448Z,100.00
2023-03-30T01:59:10.705Z,100.00
2023-03-30T02:03:19.182Z,100.00
2023-03-30T02:07:27.791Z,100.00
2023-03-30T02:11:32.642Z,100.00
2023-03-30T02:15:40.882Z,100.00
2023-03-30T02:19:46.096Z,99.54
2023-03-30T02:23:49.187Z,99.65
2023-03-30T02:27:53.051Z,99.46
2023-03-30T02:32:00.580Z,98.58
2023-03-30T02:36:23.702Z,98.03
2023-03-30T02:40:37.573Z,97.64
2023-03-30T02:44:45.836Z,97.80
2023-03-30T02:49:00.810Z,98.47
2023-03-30T02:53:12.649Z,98.26
2023-03-30T02:57:26.902Z,98.19
2023-03-30T03:01:38.463Z,98.40
2023-03-30T03:05:48.536Z,98.21
2023-03-30T03:09:51.747Z,98.43
2023-03-30T03:13:55.502Z,98.85
2023-03-30T03:17:59.074Z,98.90
2023-03-30T03:22:03.582Z,98.92
2023-03-30T03:26:11.602Z,98.98
2023-03-30T03:30:14.892Z,98.58
2023-03-30T03:34:31.394Z,97.92
2023-03-30T03:38:38.704Z,97.61
2023-03-30T03:42:41.847Z,96.98
2023-03-30T03:46:47.312Z,96.77
2023-03-30T03:50:52.454Z,96.88
2023-03-30T03:54:56.972Z,96.81
2023-03-30T03:59:02.845Z,96.15
2023-03-30T04:03:07.615Z,96.60
2023-03-30T04:07:11.676Z,96.34
2023-03-30T04:11:15.765Z,96.73
2023-03-30T04:15:42.850Z,96.49
2023-03-30T04:19:55.314Z,96.67
2023-03-30T04:24:17.913Z,96.84
2023-03-30T04:29:00.220Z,96.85
2023-03-30T04:33:05.734Z,97.19
2023-03-30T04:37:31.185Z,97.27
2023-03-30T04:41:47.999Z,97.04
2023-03-30T04:46:30.655Z,96.55
2023-03-30T04:50:56.887Z,96.06
2023-03-30T04:55:36.527Z,96.44
2023-03-30T04:59:47.264Z,96.99
2023-03-30T05:04:09.724Z,97.46
2023-03-30T05:08:44.605Z,97.89
2023-03-30T05:13:00.108Z,98.74
2023-03-30T05:17:28.889Z,99.50
2023-03-30T05:21:51.281Z,99.35
2023-03-30T05:26:04.577Z,100.00
2023-03-30T05:30:20.716Z,99.53
2023-03-30T05:34:43.413Z,99.55
2023-03-30T05:39:10.622Z,99.41
2023-03-30T05:43:34.810Z,99.43
2023-03-30T05:47:37.594Z,99.15
2023-03-30T05:51:50.063Z,99.45
2023-03-30T05:56:10.427Z,99.18
2023-03-30T06:00:48.317Z,99.37
2023-03-30T06:05:01.618Z,100.00
2023-03-30T06:09:05.443Z,100.00
2023-03-30T06:13:11.145Z,100.00
2023-03-30T06:17:21.882Z,100.00
2023-03-30T06:21:25.189Z,100.00
2023-03-30T06:25:39.901Z,100.00
2023-03-30T06:29:44.049Z,100.00
2023-03-30T06:33:46.810Z,100.00
2023-03-30T06:37:50.246Z,100.00
2023-03-30T06:41:53.060Z,100.00
2023-03-30T06:46:14.852Z,100.00
2023-03-30T06:50:22.019Z,100.00
2023-03-30T06:54:38.742Z,100.00
2023-03-30T06:58:43.107Z,100.00
2023-03-30T07:02:47.388Z,100.00
2023-03-30T07:07:08.478Z,100.00
2023-03-30T07:11:11.454Z,100.00
2023-03-30T07:15:16.737Z,100.00
2023-03-30T07:19:21.029Z,100.00
2023-03-30T07:23:23.837Z,100.00
2023-03-30T07:27:29.145Z,100.00
2023-03-30T07:31:34.192Z,100.00
2023-03-30T07:35:45.956Z,100.00
2023-03-30T07:39:51.354Z,100.00
2023-03-30T07:43:54.200Z,100.00
2023-03-30T07:47:57.504Z,100.00
2023-03-30T07:52:01.891Z,100.00
2023-03-30T07:56:19.735Z,100.00
2023-03-30T08:00:26.016Z,100.00
2023-03-30T08:04:58.480Z,100.00
2023-03-30T08:09:09.355Z,100.00
2023-03-30T08:13:13.987Z,100.00
2023-03-30T08:17:16.656Z,100.00
2023-03-30T08:21:19.458Z,100.00
2023-03-30T08:25:23.549Z,100.00
2023-03-30T08:29:26.329Z,100.00
2023-03-30T08:33:29.389Z,100.00
2023-03-30T08:37:32.136Z,100.00
2023-03-30T08:42:04.299Z,100.00
2023-03-30T08:46:11.924Z,100.00
2023-03-30T08:50:19.012Z,100.00
2023-03-30T08:54:25.102Z,100.00
2023-03-30T08:58:40.222Z,100.00
2023-03-30T09:02:47.113Z,100.00
2023-03-30T09:06:52.896Z,100.00
2023-03-30T09:10:59.997Z,100.00
2023-03-30T09:15:09.542Z,100.00
2023-03-30T09:19:20.127Z,98.72
2023-03-30T09:23:24.463Z,97.64
2023-03-30T09:27:35.955Z,96.08
2023-03-30T09:31:41.755Z,97.07
2023-03-30T09:36:00.173Z,96.33
2023-03-30T09:40:11.037Z,95.45
2023-03-30T09:44:20.445Z,96.41
2023-03-30T09:48:24.535Z,92.87
2023-03-30T09:52:29.320Z,93.08
2023-03-30T09:56:40.306Z,91.07
2023-03-30T10:00:45.081Z,91.65
2023-03-30T10:05:04.371Z,91.76
2023-03-30T10:09:13.037Z,92.95
2023-03-30T10:13:19.616Z,91.39
2023-03-30T10:17:24.887Z,92.22
2023-03-30T10:21:31.621Z,91.97
2023-03-30T10:25:34.875Z,90.51
2023-03-30T10:29:37.711Z,92.13
2023-03-30T10:33:42.857Z,95.04
2023-03-30T10:37:48.989Z,93.61
2023-03-30T10:41:52.983Z,93.15
2023-03-30T10:46:06.164Z,85.44
2023-03-30T10:50:28.081Z,86.78
2023-03-30T10:54:37.630Z,79.70
2023-03-30T10:58:55.506Z,77.34
2023-03-30T11:03:05.706Z,77.08
2023-03-30T11:07:18.601Z,77.53
2023-03-30T11:11:24.420Z,78.23
2023-03-30T11:15:31.352Z,80.45
2023-03-30T11:19:40.858Z,82.37
2023-03-30T11:23:46.493Z,81.36
2023-03-30T11:27:56.881Z,81.38
2023-03-30T11:32:18.026Z,80.85
2023-03-30T11:36:30.834Z,77.38
2023-03-30T11:40:41.957Z,79.92
2023-03-30T11:44:46.105Z,77.82
2023-03-30T11:49:04.131Z,79.68
2023-03-30T11:53:21.875Z,78.50
2023-03-30T11:57:34.060Z,76.32
2023-03-30T12:02:01.276Z,77.06
2023-03-30T12:06:22.454Z,76.27
2023-03-30T12:10:31.417Z,75.53
2023-03-30T12:14:48.750Z,77.56
2023-03-30T12:19:06.160Z,76.22
2023-03-30T12:23:28.935Z,76.32
2023-03-30T12:27:36.679Z,74.78
2023-03-30T12:32:05.047Z,74.82
2023-03-30T12:36:26.032Z,72.33
2023-03-30T12:40:30.384Z,73.12
2023-03-30T12:44:50.754Z,71.31
2023-03-30T12:49:05.977Z,69.68
2023-03-30T12:53:44.594Z,69.24
2023-03-30T12:58:02.059Z,67.79
2023-03-30T13:02:25.351Z,69.22
2023-03-30T13:06:32.770Z,67.55
2023-03-30T13:10:41.145Z,69.53
2023-03-30T13:14:46.852Z,70.84
2023-03-30T13:18:56.627Z,72.25
2023-03-30T13:23:28.173Z,72.23
2023-03-30T13:27:35.728Z,72.21
2023-03-30T13:31:48.242Z,72.30
2023-03-30T13:36:06.189Z,70.58
2023-03-30T13:40:27.362Z,68.23
2023-03-30T13:44:50.908Z,68.33
2023-03-30T13:49:05.826Z,69.63
2023-03-30T13:53:11.403Z,68.86
2023-03-30T13:57:20.909Z,69.33
2023-03-30T14:01:27.237Z,69.92
2023-03-30T14:05:30.501Z,70.23
2023-03-30T14:09:34.871Z,70.52
2023-03-30T14:13:38.590Z,70.79
2023-03-30T14:17:42.645Z,68.34
2023-03-30T14:21:47.315Z,66.02
2023-03-30T14:25:55.300Z,66.07
2023-03-30T14:29:58.660Z,67.59
2023-03-30T14:34:02.772Z,68.35
2023-03-30T14:42:18.721Z,70.02
2023-03-30T14:46:24.250Z,71.69
2023-03-30T14:50:28.506Z,72.84
2023-03-30T14:54:31.774Z,73.44
2023-03-30T14:58:34.715Z,72.62
2023-03-30T15:02:41.521Z,74.78
2023-03-30T15:06:47.134Z,72.36
2023-03-30T15:10:54.321Z,72.27
2023-03-30T15:15:01.797Z,72.38
2023-03-30T15:19:07.397Z,72.20
2023-03-30T15:23:14.222Z,72.84
2023-03-30T15:27:18.085Z,73.99
2023-03-30T15:31:21.343Z,75.08
2023-03-30T15:35:27.802Z,75.65
2023-03-30T15:39:34.675Z,76.01
2023-03-30T15:43:53.003Z,76.35
2023-03-30T15:47:55.947Z,76.49
2023-03-30T15:52:01.798Z,77.06
2023-03-30T15:56:12.581Z,77.14
2023-03-30T16:00:20.454Z,76.94
2023-03-30T16:04:25.534Z,78.38
2023-03-30T16:08:28.696Z,79.05
2023-03-30T16:12:32.939Z,82.64
2023-03-30T16:16:35.821Z,82.32
2023-03-30T16:20:38.662Z,82.51
2023-03-30T16:24:42.901Z,81.46
2023-03-30T16:28:46.948Z,81.65
2023-03-30T16:32:49.668Z,81.78
2023-03-30T16:36:53.286Z,81.26
2023-03-30T16:40:58.172Z,80.91
2023-03-30T16:45:02.201Z,81.27
2023-03-30T16:49:05.281Z,80.71
2023-03-30T16:53:09.731Z,80.59
2023-03-30T16:57:12.473Z,80.41
2023-03-30T17:01:18.666Z,80.10
2023-03-30T17:05:21.654Z,79.58
2023-03-30T17:09:24.490Z,79.30
2023-03-30T17:13:27.383Z,79.08
2023-03-30T17:17:31.472Z,79.54
2023-03-30T17:21:35.486Z,79.99
2023-03-30T17:25:39.937Z,79.62
2023-03-30T17:29:42.634Z,80.23
2023-03-30T17:33:47.323Z,80.80
2023-03-30T17:37:50.242Z,81.11
2023-03-30T17:41:53.657Z,81.19
2023-03-30T17:45:56.433Z,80.03
2023-03-30T17:50:00.774Z,80.16
2023-03-30T17:54:03.584Z,80.75
2023-03-30T17:58:14.601Z,80.77
2023-03-30T18:02:17.369Z,81.50
2023-03-30T18:06:21.427Z,82.40
2023-03-30T18:10:26.551Z,83.32
2023-03-30T18:14:29.365Z,84.26
2023-03-30T18:18:32.587Z,85.75
2023-03-30T18:22:36.693Z,87.03
2023-03-30T18:26:40.857Z,87.84
2023-03-30T18:30:43.793Z,88.36
2023-03-30T18:34:46.503Z,89.13
2023-03-30T18:38:50.660Z,89.33
2023-03-30T18:42:53.697Z,90.34
2023-03-30T18:47:04.298Z,90.94
2023-03-30T18:51:07.031Z,91.23
2023-03-30T18:55:12.114Z,91.75
2023-03-30T18:59:14.861Z,92.15
2023-03-30T19:03:18.270Z,92.81
2023-03-30T19:07:22.372Z,93.07
2023-03-30T19:11:28.275Z,93.78
2023-03-30T19:15:33.080Z,94.03
2023-03-30T19:19:35.727Z,94.00
2023-03-30T19:23:38.412Z,94.64
2023-03-30T19:27:55.418Z,94.40
2023-03-30T19:32:05.302Z,94.90
2023-03-30T19:36:08.481Z,95.26
2023-03-30T19:40:16.237Z,96.84
2023-03-30T19:44:20.505Z,98.33
2023-03-30T19:48:23.458Z,99.76
2023-03-30T19:52:26.730Z,100.00
2023-03-30T19:56:29.440Z,100.00
2023-03-30T20:00:34.775Z,100.00
2023-03-30T20:04:37.522Z,100.00
2023-03-30T20:08:40.561Z,100.00
2023-03-30T20:12:43.720Z,100.00
2023-03-30T20:16:48.586Z,100.00
2023-03-30T20:20:51.344Z,100.00
2023-03-30T20:24:54.060Z,100.00
2023-03-30T20:28:57.536Z,100.00
2023-03-30T20:33:07.752Z,100.00
2023-03-30T20:37:11.215Z,100.00
2023-03-30T20:41:14.234Z,100.00
2023-03-30T20:45:25.964Z,100.00
2023-03-30T20:49:32.083Z,100.00
2023-03-30T20:53:36.257Z,100.00
2023-03-30T20:57:38.998Z,100.00
2023-03-30T21:01:43.325Z,100.00
2023-03-30T21:05:47.961Z,100.00
2023-03-30T21:09:50.839Z,100.00
2023-03-30T21:13:54.523Z,100.00
2023-03-30T21:17:57.331Z,100.00
2023-03-30T21:22:01.575Z,100.00
2023-03-30T21:26:06.298Z,100.00
2023-03-30T21:30:12.146Z,100.00
2023-03-30T21:34:15.697Z,100.00
2023-03-30T21:38:23.039Z,100.00
2023-03-30T21:42:25.981Z,100.00
2023-03-30T21:46:29.038Z,100.00
2023-03-30T21:50:31.782Z,100.00
2023-03-30T21:54:35.942Z,100.00
2023-03-30T21:58:39.246Z,100.00
2023-03-30T22:02:42.139Z,100.00
2023-03-30T22:06:45.032Z,100.00
2023-03-30T22:10:56.944Z,100.00
2023-03-30T22:14:59.605Z,100.00
2023-03-30T22:19:02.745Z,100.00
2023-03-30T22:23:05.813Z,100.00
2023-03-30T22:27:09.912Z,100.00
2023-03-30T22:31:14.740Z,100.00
2023-03-30T22:35:17.496Z,100.00
2023-03-30T22:39:20.264Z,100.00
2023-03-30T22:43:24.324Z,100.00
2023-03-30T22:47:27.109Z,100.00
2023-03-30T22:51:30.229Z,100.00
2023-03-30T22:55:32.898Z,100.00
2023-03-30T22:59:37.009Z,100.00
2023-03-30T23:03:39.936Z,100.00
2023-03-30T23:07:44.244Z,100.00
2023-03-30T23:11:47.152Z,100.00
2023-03-30T23:15:51.171Z,100.00
2023-03-30T23:19:55.685Z,100.00
2023-03-30T23:23:58.346Z,100.00
2023-03-30T23:28:03.492Z,100.00
2023-03-30T23:32:08.135Z,100.00
2023-03-30T23:36:13.559Z,100.00
2023-03-30T23:40:16.828Z,100.00
2023-03-30T23:44:19.603Z,100.00
2023-03-30T23:48:23.688Z,100.00
2023-03-30T23:52:27.128Z,100.00
2023-03-30T23:56:32.132Z,100.00
